Moonachie, NJ

12:29 AM EDT on August 29, 2014 (GMT -0400)
Heights | Change Station
CLOSE
Current Station
Personal Weather Station
Location: Hasbrouck Heights, NJ
Elevation: 149 ft
Nearby Weather Stations

Elev 149 ft 40.86 °N, 74.08 °W | Updated 4 minutes ago

Clear
Clear
63.1 °F
Feels Like 63.1 °F
N
0.0
Wind Variable Wind from NNW
Gusts 2.0 mph

Today
High -- | Low -- °F
--% Chance of Precip.
Yesterday
High -- | Low -- °F
Precip. -- in
6:20 AM 7:33 PM
Waxing Crescent, 12% visible
Pressure 30.05 in
Visibility 10.0 miles
Clouds Clear
Dew Point 51 °F
Humidity 64%
Rainfall 0.00 in
Snow Depth Not available.
UV 0.0 out of 12
Pollen 10.20 out of 12
Air Quality Not available.
Flu Activity Not available.
METAR KTEB 290351Z 34004KT 10SM CLR 19/08 A3005 RMK AO2 SLP175 T01890078

More Conditions Fewer Conditions

Pressure 30.05 in
Visibility 10.0 miles
Clouds Clear
Dew Point 51 °F
Humidity 64%
Rainfall 0.00 in
Snow Depth Not available.
UV 0.0 out of 12
Pollen 10.20 out of 12
Air Quality Not available.
Flu Activity Not available.
METAR KTEB 290351Z 34004KT 10SM CLR 19/08 A3005 RMK AO2 SLP175 T01890078

More Conditions Fewer Conditions

10-Day Weather Forecast

Almanac

Astronomy

Aug. 29, 2014 Rise Set
Actual Time 6:20 AM EDT 7:33 PM EDT
Civil Twilight 5:51 AM EDT 8:01 PM EDT
Nautical Twilight 5:17 AM EDT 8:35 PM EDT
Astronomical Twilight 4:42 AM EDT 9:11 PM EDT
Moon 10:08 AM EDT 9:27 PM EDT
Length of Visible Light 14h 09m
Length of Day
13h 13m
Tomorrow will be 2m 35s shorter.
Waxing Crescent, 12% of the Moon is Illuminated
Today
Waxing Crescent
Sep 2
First Quarter
Sep 8
Full
Sep 15
Last Quarter
Sep 24
New

Yesterday's Extremes

State Highs State Lows

Community

WunderPhotos

Upload Photos

1,748,185 photos uploaded!

Nearby

Snow Depth

Station Depth Elevation
No new snow has been reported.

Earthquake Activity

City Distance Mag. Time & Date
No recent earthquake activity has been reported nearby.
Minimum magnitude displayed is 2.5.

Coastal Water Temperatures

Place Temperature
Sandy Hook, NJ 75.9 °F
The Battery, NY 75.0 °F
Bergen Point West Reach, NJ 75.0 °F

Nearby Weather Stations